Time;durP1;ratioP1;P1;durP2;ratioP2;P2;SDS_P1;SDS_P2;PMS_P1;PMS_P2;Temp;Humidity;BMP_temperature;BMP_pressure;BME280_temperature;BME280_humidity;BME280_pressure;Samples;Min_cycle;Max_cycle;Signal;HPM_P1;HPM_P2
2021/04/22 00:00:17;;;;;;;13.00;3.40;;;;;;;;;;4980228;28;20208;-74
2021/04/22 00:02:42;;;;;;;14.23;3.60;;;;;;;;;;4981653;28;20270;-75
2021/04/22 00:05:21;;;;;;;13.73;2.93;;;;;;;;;;4981455;28;20646;-74
2021/04/22 00:07:51;;;;;;;16.80;3.17;;;;;;;;;;4981935;28;20210;-76
2021/04/22 00:10:22;;;;;;;11.77;3.03;;;;;;;;;;4987319;28;20176;-75
2021/04/22 00:12:47;;;;;;;20.33;4.20;;;;;;;;;;4980739;28;20222;-75
2021/04/22 00:15:16;;;;;;;12.83;4.10;;;;;;;;;;4978022;28;20567;-75
2021/04/22 00:17:43;;;;;;;14.73;3.47;;;;;;;;;;4976505;28;20648;-75
2021/04/22 00:20:10;;;;;;;19.73;3.97;;;;;;;;;;4973826;28;20636;-76
2021/04/22 00:22:35;;;;;;;14.70;3.83;;;;;;;;;;4978082;28;20218;-75
2021/04/22 00:25:00;;;;;;;11.77;3.73;;;;;;;;;;4981880;28;20192;-74
2021/04/22 00:27:26;;;;;;;15.43;3.80;;;;;;;;;;4986202;28;20284;-75
2021/04/22 00:29:51;;;;;;;12.53;3.47;;;;;;;;;;4978458;28;20196;-75
2021/04/22 00:32:16;;;;;;;15.17;3.40;;;;;;;;;;4986774;28;20290;-75
2021/04/22 00:34:42;;;;;;;16.40;3.63;;;;;;;;;;4983081;28;20660;-75
2021/04/22 00:37:07;;;;;;;15.63;3.57;;;;;;;;;;4986303;28;20270;-75
2021/04/22 00:39:32;;;;;;;13.90;3.73;;;;;;;;;;4982758;28;20291;-75
2021/04/22 00:41:58;;;;;;;14.07;3.43;;;;;;;;;;4991460;28;20683;-75
2021/04/22 00:44:23;;;;;;;12.23;3.83;;;;;;;;;;4977556;28;20633;-75
2021/04/22 00:46:48;;;;;;;16.83;4.10;;;;;;;;;;4985079;28;20204;-75
2021/04/22 00:49:15;;;;;;;12.60;3.43;;;;;;;;;;4978894;28;20302;-75
2021/04/22 00:51:41;;;;;;;14.73;3.73;;;;;;;;;;4982883;28;20218;-75
2021/04/22 00:54:06;;;;;;;12.93;3.87;;;;;;;;;;4980586;28;20196;-76
2021/04/22 00:56:31;;;;;;;13.53;3.97;;;;;;;;;;4984778;28;20196;-75
2021/04/22 00:58:56;;;;;;;15.57;4.00;;;;;;;;;;4980083;28;20231;-75
2021/04/22 01:01:24;;;;;;;16.80;4.30;;;;;;;;;;4982329;28;20220;-75
2021/04/22 01:03:52;;;;;;;12.13;3.43;;;;;;;;;;4983101;28;20219;-75
2021/04/22 01:06:17;;;;;;;17.37;4.07;;;;;;;;;;4983201;28;20336;-75
2021/04/22 01:08:43;;;;;;;10.50;3.47;;;;;;;;;;4982391;28;20750;-76
2021/04/22 01:11:08;;;;;;;20.30;4.80;;;;;;;;;;4978274;28;20186;-75
2021/04/22 01:13:33;;;;;;;13.90;3.87;;;;;;;;;;4977083;28;20280;-75
2021/04/22 01:15:59;;;;;;;17.20;4.83;;;;;;;;;;4982214;28;20231;-75
2021/04/22 01:18:26;;;;;;;15.07;4.67;;;;;;;;;;4987307;28;20192;-75
2021/04/22 01:20:52;;;;;;;15.37;4.43;;;;;;;;;;4982245;28;20199;-76
2021/04/22 01:23:18;;;;;;;15.30;4.40;;;;;;;;;;4981866;28;20219;-76
2021/04/22 01:25:49;;;;;;;19.87;4.17;;;;;;;;;;4978492;28;20192;-76
2021/04/22 01:28:17;;;;;;;17.73;4.30;;;;;;;;;;4981342;28;20242;-75
2021/04/22 01:30:54;;;;;;;20.80;5.00;;;;;;;;;;4976667;28;20180;-75
2021/04/22 01:33:24;;;;;;;17.20;4.10;;;;;;;;;;5005533;28;20215;-75
2021/04/22 01:35:52;;;;;;;18.03;4.50;;;;;;;;;;4978686;28;20189;-75
2021/04/22 01:38:18;;;;;;;18.10;4.60;;;;;;;;;;4984325;28;20196;-75
2021/04/22 01:40:47;;;;;;;22.40;4.80;;;;;;;;;;4978211;28;20229;-75
2021/04/22 01:43:14;;;;;;;21.67;4.90;;;;;;;;;;4989180;28;20551;-75
2021/04/22 01:45:40;;;;;;;28.23;5.77;;;;;;;;;;4986563;28;20301;-75
2021/04/22 01:48:06;;;;;;;17.63;5.30;;;;;;;;;;4988913;28;20513;-75
2021/04/22 01:50:33;;;;;;;15.70;5.53;;;;;;;;;;4984660;28;20254;-76
2021/04/22 01:52:59;;;;;;;18.30;5.13;;;;;;;;;;4983956;28;20283;-75
2021/04/22 01:55:30;;;;;;;18.53;4.80;;;;;;;;;;4981303;28;20275;-75
2021/04/22 01:57:56;;;;;;;18.33;5.07;;;;;;;;;;4992422;28;20598;-76
2021/04/22 02:00:28;;;;;;;17.40;5.80;;;;;;;;;;4987524;28;20212;-75
2021/04/22 02:02:53;;;;;;;24.87;5.87;;;;;;;;;;4997127;28;20262;-75
2021/04/22 02:05:20;;;;;;;19.10;5.37;;;;;;;;;;4984709;28;20656;-74
2021/04/22 02:07:48;;;;;;;15.80;6.17;;;;;;;;;;4982097;28;20211;-76
2021/04/22 02:10:14;;;;;;;19.97;5.43;;;;;;;;;;4980493;28;20663;-76
2021/04/22 02:12:39;;;;;;;21.77;5.47;;;;;;;;;;4985982;28;20220;-75
2021/04/22 02:15:07;;;;;;;17.03;5.03;;;;;;;;;;4990027;28;20216;-75
2021/04/22 02:17:32;;;;;;;12.13;4.90;;;;;;;;;;4983597;28;20185;-75
2021/04/22 02:19:57;;;;;;;17.27;4.90;;;;;;;;;;4983346;28;20204;-75
2021/04/22 02:22:23;;;;;;;12.90;4.60;;;;;;;;;;4988485;28;20889;-75
2021/04/22 02:24:48;;;;;;;16.23;5.03;;;;;;;;;;4985779;28;20279;-75
2021/04/22 02:27:13;;;;;;;14.77;4.97;;;;;;;;;;4980005;28;20606;-75
2021/04/22 02:29:41;;;;;;;14.50;4.97;;;;;;;;;;4978008;28;20202;-76
2021/04/22 02:32:07;;;;;;;19.73;5.20;;;;;;;;;;4986283;28;20343;-75
2021/04/22 02:34:34;;;;;;;17.13;5.20;;;;;;;;;;4990883;28;20192;-76
2021/04/22 02:37:00;;;;;;;17.77;4.80;;;;;;;;;;4983419;28;20188;-74
2021/04/22 02:39:27;;;;;;;15.83;4.60;;;;;;;;;;4983850;28;20184;-74
2021/04/22 02:41:53;;;;;;;13.93;4.93;;;;;;;;;;4988619;28;20783;-74
2021/04/22 02:44:18;;;;;;;19.53;5.30;;;;;;;;;;4988368;28;20183;-74
2021/04/22 02:46:43;;;;;;;18.00;4.40;;;;;;;;;;4980548;28;20242;-75
2021/04/22 02:49:08;;;;;;;20.73;4.53;;;;;;;;;;4991890;28;20189;-75
2021/04/22 02:51:38;;;;;;;19.93;5.10;;;;;;;;;;4982790;28;20224;-75
2021/04/22 02:54:04;;;;;;;17.37;4.83;;;;;;;;;;4983571;28;20703;-75
2021/04/22 02:56:29;;;;;;;18.87;5.37;;;;;;;;;;4981236;28;20283;-75
2021/04/22 02:58:55;;;;;;;21.07;5.63;;;;;;;;;;4988009;28;20195;-75
2021/04/22 03:01:20;;;;;;;22.00;6.13;;;;;;;;;;4984557;28;20236;-75
2021/04/22 03:03:45;;;;;;;16.20;5.07;;;;;;;;;;4980466;28;20652;-75
2021/04/22 03:06:10;;;;;;;21.17;6.10;;;;;;;;;;4985841;28;20270;-75
2021/04/22 03:08:36;;;;;;;25.63;6.03;;;;;;;;;;4987486;28;20223;-75
2021/04/22 03:11:01;;;;;;;20.13;6.00;;;;;;;;;;4986874;28;20227;-74
2021/04/22 03:13:26;;;;;;;24.40;6.10;;;;;;;;;;4984714;28;20194;-76
2021/04/22 03:15:51;;;;;;;18.37;5.13;;;;;;;;;;4978439;28;20275;-75
2021/04/22 03:18:17;;;;;;;19.93;5.40;;;;;;;;;;4983423;28;20837;-74
2021/04/22 03:20:42;;;;;;;18.40;4.73;;;;;;;;;;4986031;28;20215;-76
2021/04/22 03:23:08;;;;;;;16.13;4.33;;;;;;;;;;4983733;28;20207;-75
2021/04/22 03:25:34;;;;;;;12.77;4.43;;;;;;;;;;4987395;28;20630;-75
2021/04/22 03:27:59;;;;;;;15.33;4.57;;;;;;;;;;4980445;28;20215;-75
2021/04/22 03:30:30;;;;;;;17.93;5.03;;;;;;;;;;4988584;28;20184;-75
2021/04/22 03:32:58;;;;;;;14.27;4.47;;;;;;;;;;4990052;28;20297;-75
2021/04/22 03:35:24;;;;;;;15.53;3.83;;;;;;;;;;4981280;28;20268;-75
2021/04/22 03:37:50;;;;;;;17.03;3.80;;;;;;;;;;4982541;28;20193;-76
2021/04/22 03:40:17;;;;;;;13.57;4.03;;;;;;;;;;4985798;28;20673;-75
2021/04/22 03:42:42;;;;;;;17.33;4.10;;;;;;;;;;4988122;28;20679;-75
2021/04/22 03:45:10;;;;;;;11.53;3.20;;;;;;;;;;4980080;28;20191;-76
2021/04/22 03:47:36;;;;;;;14.20;4.03;;;;;;;;;;4985591;28;20184;-75
2021/04/22 03:50:04;;;;;;;12.73;3.97;;;;;;;;;;4987852;28;20296;-75
2021/04/22 03:52:29;;;;;;;14.30;4.07;;;;;;;;;;4984930;28;20208;-74
2021/04/22 03:54:55;;;;;;;18.13;4.10;;;;;;;;;;4981193;28;20570;-75
2021/04/22 03:57:21;;;;;;;15.13;3.77;;;;;;;;;;4982392;28;20267;-75
2021/04/22 03:59:46;;;;;;;16.63;3.70;;;;;;;;;;4982222;28;20196;-75
2021/04/22 04:02:11;;;;;;;16.90;3.90;;;;;;;;;;4988618;28;20686;-76
2021/04/22 04:04:36;;;;;;;13.30;3.50;;;;;;;;;;4978323;28;20278;-75
2021/04/22 04:07:02;;;;;;;15.23;3.97;;;;;;;;;;4977755;28;20271;-74
2021/04/22 04:09:27;;;;;;;11.13;3.83;;;;;;;;;;4982519;28;20204;-75
2021/04/22 04:11:53;;;;;;;16.60;4.33;;;;;;;;;;4986578;28;20657;-76
2021/04/22 04:14:18;;;;;;;13.37;3.60;;;;;;;;;;4980808;28;20203;-75
2021/04/22 04:16:43;;;;;;;13.97;3.60;;;;;;;;;;4981824;28;20198;-76
2021/04/22 04:19:08;;;;;;;13.77;3.27;;;;;;;;;;4980745;28;20200;-76
2021/04/22 04:21:34;;;;;;;22.80;4.40;;;;;;;;;;4988559;28;20212;-76
2021/04/22 04:24:01;;;;;;;12.63;3.80;;;;;;;;;;4984473;28;20208;-77
2021/04/22 04:26:26;;;;;;;12.07;3.77;;;;;;;;;;4984246;28;20210;-75
2021/04/22 04:28:52;;;;;;;15.93;4.13;;;;;;;;;;4981466;28;20204;-75
2021/04/22 04:31:17;;;;;;;18.03;4.17;;;;;;;;;;4980272;28;20196;-75
2021/04/22 04:33:43;;;;;;;10.63;3.90;;;;;;;;;;4989511;28;20191;-76
2021/04/22 04:36:09;;;;;;;14.43;3.47;;;;;;;;;;4977315;28;20216;-75
2021/04/22 04:38:34;;;;;;;16.10;3.73;;;;;;;;;;4986562;28;20192;-75
2021/04/22 04:40:59;;;;;;;14.53;3.77;;;;;;;;;;4984759;28;20203;-76
2021/04/22 04:43:24;;;;;;;12.97;3.57;;;;;;;;;;4985141;28;20775;-76
2021/04/22 04:45:50;;;;;;;18.63;3.90;;;;;;;;;;4981139;28;20195;-76
2021/04/22 04:48:15;;;;;;;13.37;3.83;;;;;;;;;;4981293;28;20777;-75
2021/04/22 04:50:43;;;;;;;12.23;3.63;;;;;;;;;;4988105;28;20262;-76
2021/04/22 04:53:08;;;;;;;14.10;3.67;;;;;;;;;;4986178;28;20223;-74
2021/04/22 04:55:33;;;;;;;15.57;4.00;;;;;;;;;;4982738;28;20196;-75
2021/04/22 04:57:58;;;;;;;13.00;3.57;;;;;;;;;;4979922;28;20205;-75
2021/04/22 05:00:24;;;;;;;16.47;3.80;;;;;;;;;;4986400;28;20204;-76
2021/04/22 05:02:49;;;;;;;15.33;4.00;;;;;;;;;;4983497;28;20212;-76
2021/04/22 05:05:15;;;;;;;15.57;3.60;;;;;;;;;;4982905;28;20275;-75
2021/04/22 05:07:41;;;;;;;17.43;3.63;;;;;;;;;;4980361;28;20283;-75
2021/04/22 05:10:08;;;;;;;11.47;3.33;;;;;;;;;;4986454;28;20184;-76
2021/04/22 05:12:33;;;;;;;11.20;3.00;;;;;;;;;;4985247;28;20273;-75
2021/04/22 05:14:59;;;;;;;15.20;3.37;;;;;;;;;;4981535;28;20668;-76
2021/04/22 05:17:24;;;;;;;14.03;3.70;;;;;;;;;;4985021;28;20655;-75
2021/04/22 05:19:54;;;;;;;17.13;4.33;;;;;;;;;;4981476;28;20193;-75
2021/04/22 05:22:19;;;;;;;18.23;4.20;;;;;;;;;;4988484;28;20230;-74
2021/04/22 05:24:44;;;;;;;22.43;4.63;;;;;;;;;;4985480;28;20275;-75
2021/04/22 05:27:10;;;;;;;13.73;3.83;;;;;;;;;;4987002;28;20192;-75
2021/04/22 05:29:35;;;;;;;12.53;3.53;;;;;;;;;;4981440;28;20197;-76
2021/04/22 05:32:01;;;;;;;14.17;3.43;;;;;;;;;;4992010;28;20254;-76
2021/04/22 05:34:28;;;;;;;17.83;3.60;;;;;;;;;;4986269;28;20207;-76
2021/04/22 05:36:53;;;;;;;15.17;4.20;;;;;;;;;;4988058;28;20266;-76
2021/04/22 05:39:20;;;;;;;21.07;3.93;;;;;;;;;;4984405;28;20747;-76
2021/04/22 05:41:47;;;;;;;12.17;4.00;;;;;;;;;;4986931;28;20251;-76
2021/04/22 05:44:13;;;;;;;12.63;3.40;;;;;;;;;;4983702;28;20196;-75
2021/04/22 05:46:42;;;;;;;16.43;3.80;;;;;;;;;;4986635;28;20187;-75
2021/04/22 05:49:08;;;;;;;15.63;3.63;;;;;;;;;;4985988;28;20243;-75
2021/04/22 05:51:33;;;;;;;17.83;3.80;;;;;;;;;;4987873;28;20699;-75
2021/04/22 05:53:58;;;;;;;17.70;3.53;;;;;;;;;;4982555;28;20197;-76
2021/04/22 05:56:25;;;;;;;14.93;3.80;;;;;;;;;;4980628;28;20255;-75
2021/04/22 05:58:50;;;;;;;19.40;3.97;;;;;;;;;;4976486;28;20195;-75
2021/04/22 06:01:18;;;;;;;17.70;3.30;;;;;;;;;;4989207;28;20212;-75
2021/04/22 06:03:43;;;;;;;13.73;3.70;;;;;;;;;;4986655;28;20192;-75
2021/04/22 06:06:08;;;;;;;16.47;4.13;;;;;;;;;;4985269;28;20653;-76
2021/04/22 06:08:33;;;;;;;17.70;3.27;;;;;;;;;;4994680;28;20192;-77
2021/04/22 06:10:59;;;;;;;19.70;4.00;;;;;;;;;;4987155;28;20207;-76
2021/04/22 06:13:24;;;;;;;12.53;3.90;;;;;;;;;;4983192;28;20219;-74
2021/04/22 06:15:49;;;;;;;17.43;3.67;;;;;;;;;;4985549;28;20200;-76
2021/04/22 06:18:14;;;;;;;14.67;3.53;;;;;;;;;;4993088;28;20683;-75
2021/04/22 06:20:41;;;;;;;21.80;3.87;;;;;;;;;;4986483;28;20215;-76
2021/04/22 06:23:06;;;;;;;14.67;3.17;;;;;;;;;;4981837;28;20487;-80
2021/04/22 06:25:32;;;;;;;18.00;3.97;;;;;;;;;;4985305;28;20198;-77
2021/04/22 06:27:57;;;;;;;16.23;3.73;;;;;;;;;;4984343;28;20645;-76
2021/04/22 06:30:23;;;;;;;21.13;4.10;;;;;;;;;;4986616;28;20180;-77
2021/04/22 06:32:48;;;;;;;11.73;3.20;;;;;;;;;;4985983;28;20605;-78
2021/04/22 06:35:17;;;;;;;15.40;3.40;;;;;;;;;;4981905;28;20195;-76
2021/04/22 06:37:43;;;;;;;13.33;3.10;;;;;;;;;;4980982;28;20259;-77
2021/04/22 06:40:13;;;;;;;12.83;3.33;;;;;;;;;;4988438;28;20204;-77
2021/04/22 06:42:40;;;;;;;15.90;3.90;;;;;;;;;;4985331;28;20216;-76
2021/04/22 06:45:10;;;;;;;15.87;3.63;;;;;;;;;;4983307;28;20563;-76
2021/04/22 06:47:36;;;;;;;15.27;4.03;;;;;;;;;;4986416;28;20250;-75
2021/04/22 06:50:02;;;;;;;10.13;2.80;;;;;;;;;;4983256;28;20184;-75
2021/04/22 06:52:28;;;;;;;16.23;3.60;;;;;;;;;;4983127;28;20779;-78
2021/04/22 06:54:53;;;;;;;14.80;3.53;;;;;;;;;;4985909;28;20192;-77
2021/04/22 06:57:19;;;;;;;12.93;3.37;;;;;;;;;;4986351;28;20656;-77
2021/04/22 06:59:44;;;;;;;15.30;3.53;;;;;;;;;;4982307;28;20184;-78
2021/04/22 07:02:09;;;;;;;9.37;3.10;;;;;;;;;;4982073;28;20217;-78
2021/04/22 07:04:37;;;;;;;13.43;3.67;;;;;;;;;;4985866;28;20242;-79
2021/04/22 07:07:06;;;;;;;11.93;3.30;;;;;;;;;;4983582;28;20180;-79
2021/04/22 07:09:34;;;;;;;10.73;3.40;;;;;;;;;;4983471;28;20190;-77
2021/04/22 07:11:59;;;;;;;13.57;3.57;;;;;;;;;;4983256;28;20200;-79
2021/04/22 07:14:24;;;;;;;10.87;3.00;;;;;;;;;;4985309;28;20239;-78
2021/04/22 07:16:49;;;;;;;12.70;3.73;;;;;;;;;;4977871;28;20199;-76
2021/04/22 07:19:17;;;;;;;13.63;3.97;;;;;;;;;;4988290;28;20235;-76
2021/04/22 07:21:42;;;;;;;12.43;3.60;;;;;;;;;;4979191;28;20223;-77
2021/04/22 07:24:08;;;;;;;13.97;3.87;;;;;;;;;;4989799;28;20636;-75
2021/04/22 07:26:33;;;;;;;14.27;3.70;;;;;;;;;;4982288;28;20238;-76
2021/04/22 07:29:01;;;;;;;12.40;3.27;;;;;;;;;;4976897;28;20552;-75
2021/04/22 07:31:26;;;;;;;15.03;3.50;;;;;;;;;;4987505;28;20263;-75
2021/04/22 07:33:51;;;;;;;13.00;3.40;;;;;;;;;;4987488;28;20251;-75
2021/04/22 07:36:18;;;;;;;12.73;3.30;;;;;;;;;;4987277;28;20210;-76
2021/04/22 07:38:43;;;;;;;12.23;3.73;;;;;;;;;;4982317;28;24611;-75
2021/04/22 07:41:08;;;;;;;11.90;3.27;;;;;;;;;;4985439;28;20200;-73
2021/04/22 07:43:36;;;;;;;14.97;3.37;;;;;;;;;;4991548;28;20195;-74
2021/04/22 07:46:02;;;;;;;7.80;2.80;;;;;;;;;;4984772;28;20211;-75
2021/04/22 07:48:27;;;;;;;12.63;3.03;;;;;;;;;;4976755;28;20195;-75
2021/04/22 07:50:53;;;;;;;13.27;3.53;;;;;;;;;;4987030;28;20188;-75
2021/04/22 07:53:19;;;;;;;14.63;3.80;;;;;;;;;;4985940;28;20207;-75
2021/04/22 07:56:01;;;;;;;11.23;2.85;;;;;;;;;;4986097;28;20191;-75
2021/04/22 07:58:43;;;;;;;14.85;3.72;;;;;;;;;;4982073;28;20330;-75
2021/04/22 08:01:47;;;;;;;9.32;3.08;;;;;;;;;;4984270;28;20238;-75
2021/04/22 08:07:34;;;;;;;13.85;3.28;;;;;;;;;;4883208;28;20206;-75
2021/04/22 08:09:59;;;;;;;12.95;3.05;;;;;;;;;;4983836;28;20223;-75
2021/04/22 08:12:24;;;;;;;14.32;3.03;;;;;;;;;;4988751;28;20227;-75
2021/04/22 08:14:52;;;;;;;9.13;3.50;;;;;;;;;;4986813;28;20193;-75
2021/04/22 08:17:25;;;;;;;10.60;2.90;;;;;;;;;;4989786;28;20257;-76
2021/04/22 08:19:53;;;;;;;12.17;3.30;;;;;;;;;;4981269;28;20181;-75
2021/04/22 08:22:18;;;;;;;13.03;3.30;;;;;;;;;;4982125;28;20266;-76
2021/04/22 08:24:46;;;;;;;8.97;2.60;;;;;;;;;;4984076;28;20188;-76
2021/04/22 08:27:11;;;;;;;10.27;3.20;;;;;;;;;;4977370;28;20208;-75
2021/04/22 08:29:39;;;;;;;10.50;3.23;;;;;;;;;;4994599;28;20188;-76
2021/04/22 08:32:05;;;;;;;9.03;2.60;;;;;;;;;;4986513;28;20302;-76
2021/04/22 08:34:30;;;;;;;14.83;3.30;;;;;;;;;;4986369;28;20337;-76
2021/04/22 08:36:55;;;;;;;11.13;2.90;;;;;;;;;;4970713;28;20188;-76
2021/04/22 08:39:20;;;;;;;7.77;2.43;;;;;;;;;;4988262;28;20196;-76
2021/04/22 08:41:46;;;;;;;12.87;2.73;;;;;;;;;;4985529;28;20223;-76
2021/04/22 08:44:12;;;;;;;13.00;2.53;;;;;;;;;;4984378;28;20272;-75
2021/04/22 08:46:42;;;;;;;16.00;2.77;;;;;;;;;;4981586;28;20656;-76
2021/04/22 08:49:09;;;;;;;11.97;2.57;;;;;;;;;;4981772;28;20250;-75
2021/04/22 08:51:35;;;;;;;8.50;2.57;;;;;;;;;;4989264;28;20211;-76
2021/04/22 08:54:03;;;;;;;8.07;2.30;;;;;;;;;;4990907;28;20786;-76
2021/04/22 08:56:32;;;;;;;6.33;2.70;;;;;;;;;;4985523;28;20185;-76
2021/04/22 08:58:58;;;;;;;10.07;2.30;;;;;;;;;;4989524;28;20195;-77
2021/04/22 09:01:25;;;;;;;5.37;2.17;;;;;;;;;;4996218;28;20246;-77
2021/04/22 09:03:50;;;;;;;7.27;2.23;;;;;;;;;;4989778;28;20246;-76
2021/04/22 09:06:16;;;;;;;10.50;2.30;;;;;;;;;;4996550;28;20188;-76
2021/04/22 09:08:50;;;;;;;9.07;2.40;;;;;;;;;;4995669;28;20224;-76
2021/04/22 09:11:19;;;;;;;8.23;2.27;;;;;;;;;;4987061;28;20675;-77
2021/04/22 09:13:45;;;;;;;9.97;2.47;;;;;;;;;;4983169;28;20251;-76
2021/04/22 09:16:15;;;;;;;9.23;3.23;;;;;;;;;;4988478;28;20183;-76
2021/04/22 09:18:46;;;;;;;10.57;2.97;;;;;;;;;;4988863;28;20230;-75
2021/04/22 09:21:21;;;;;;;7.20;1.97;;;;;;;;;;4987394;28;20254;-75
2021/04/22 09:24:10;;;;;;;7.13;2.60;;;;;;;;;;4990745;28;20199;-76
2021/04/22 09:26:50;;;;;;;6.57;2.50;;;;;;;;;;4989328;28;20192;-75
2021/04/22 09:29:30;;;;;;;9.00;2.60;;;;;;;;;;4988343;28;20202;-76
2021/04/22 09:32:07;;;;;;;6.27;2.20;;;;;;;;;;4981932;28;20200;-76
2021/04/22 09:34:32;;;;;;;8.23;2.70;;;;;;;;;;4972883;28;20200;-77
2021/04/22 09:36:57;;;;;;;7.13;2.60;;;;;;;;;;4982827;28;20699;-76
2021/04/22 09:39:25;;;;;;;7.53;2.33;;;;;;;;;;4984127;28;20188;-76
2021/04/22 09:41:54;;;;;;;8.93;2.33;;;;;;;;;;4987377;28;20216;-76
2021/04/22 09:44:22;;;;;;;5.13;2.37;;;;;;;;;;4987427;28;20554;-76
2021/04/22 09:46:59;;;;;;;7.80;2.67;;;;;;;;;;4983394;28;20219;-74
2021/04/22 09:49:27;;;;;;;9.75;2.50;;;;;;;;;;4995584;28;20612;-75
2021/04/22 09:51:52;;;;;;;8.03;2.87;;;;;;;;;;4986354;28;20205;-75
2021/04/22 09:54:20;;;;;;;10.70;2.67;;;;;;;;;;4985271;28;20672;-75
2021/04/22 09:56:53;;;;;;;11.10;2.80;;;;;;;;;;4985188;28;20607;-76
2021/04/22 09:59:22;;;;;;;6.93;2.57;;;;;;;;;;4982424;28;20276;-75
2021/04/22 10:02:02;;;;;;;10.83;3.20;;;;;;;;;;4986409;28;20244;-75
2021/04/22 10:04:42;;;;;;;9.07;2.60;;;;;;;;;;4983504;28;20187;-76
2021/04/22 10:07:25;;;;;;;8.33;3.00;;;;;;;;;;4983940;28;20273;-76
2021/04/22 10:10:03;;;;;;;10.63;2.60;;;;;;;;;;4984552;28;20192;-74
2021/04/22 10:12:31;;;;;;;7.23;2.10;;;;;;;;;;4984252;28;20884;-75
2021/04/22 10:15:08;;;;;;;14.33;3.37;;;;;;;;;;4985824;28;20243;-74
2021/04/22 10:17:34;;;;;;;9.60;2.80;;;;;;;;;;4985676;28;20192;-75
2021/04/22 10:20:01;;;;;;;8.00;2.97;;;;;;;;;;4980459;28;20216;-74
2021/04/22 10:22:28;;;;;;;11.73;2.60;;;;;;;;;;4980680;28;20403;-73
2021/04/22 10:24:55;;;;;;;6.93;2.70;;;;;;;;;;4986235;28;20184;-75
2021/04/22 10:27:24;;;;;;;7.80;2.77;;;;;;;;;;4983938;28;20192;-75
2021/04/22 10:29:49;;;;;;;11.70;2.83;;;;;;;;;;4987367;28;20345;-75
2021/04/22 10:32:15;;;;;;;9.37;2.57;;;;;;;;;;4982403;28;20274;-75
2021/04/22 10:34:41;;;;;;;11.07;2.90;;;;;;;;;;4980896;28;20192;-75
2021/04/22 10:37:06;;;;;;;8.77;2.77;;;;;;;;;;4978154;28;20196;-75
2021/04/22 10:39:34;;;;;;;15.90;3.40;;;;;;;;;;4988036;28;20192;-74
2021/04/22 10:42:02;;;;;;;15.17;3.27;;;;;;;;;;4985255;28;20725;-75
2021/04/22 10:44:31;;;;;;;10.57;2.80;;;;;;;;;;4980257;28;20725;-75
2021/04/22 10:46:58;;;;;;;6.07;2.63;;;;;;;;;;4985074;28;20193;-76
2021/04/22 10:49:23;;;;;;;7.37;2.63;;;;;;;;;;4986145;28;20192;-76
2021/04/22 10:51:49;;;;;;;11.27;2.90;;;;;;;;;;4988325;28;20204;-76
2021/04/22 10:54:14;;;;;;;12.23;2.80;;;;;;;;;;4985523;28;20188;-76
2021/04/22 10:56:39;;;;;;;15.57;2.90;;;;;;;;;;4979117;28;20226;-76
2021/04/22 10:59:05;;;;;;;8.57;3.30;;;;;;;;;;4981628;28;20660;-76
2021/04/22 11:01:38;;;;;;;10.70;2.90;;;;;;;;;;4981892;28;20208;-75
2021/04/22 11:04:09;;;;;;;13.07;2.97;;;;;;;;;;4988011;28;20606;-76
2021/04/22 11:06:39;;;;;;;6.13;2.80;;;;;;;;;;4986952;28;20219;-76
2021/04/22 11:09:21;;;;;;;14.03;3.17;;;;;;;;;;4986724;28;20278;-76
2021/04/22 11:12:00;;;;;;;7.77;3.17;;;;;;;;;;4986768;28;20291;-76
2021/04/22 11:14:41;;;;;;;9.10;2.70;;;;;;;;;;4988354;28;20567;-76
2021/04/22 11:17:08;;;;;;;6.97;2.53;;;;;;;;;;4984169;28;20188;-76
2021/04/22 11:19:39;;;;;;;10.53;2.73;;;;;;;;;;4986300;28;20184;-73
2021/04/22 11:22:25;;;;;;;7.50;2.50;;;;;;;;;;4987841;28;20216;-74
2021/04/22 11:25:03;;;;;;;6.50;2.47;;;;;;;;;;4980478;28;20645;-76
2021/04/22 11:27:31;;;;;;;6.67;2.40;;;;;;;;;;4985115;28;20183;-76
2021/04/22 11:30:01;;;;;;;13.53;3.63;;;;;;;;;;4985690;28;20267;-77
2021/04/22 11:32:40;;;;;;;11.73;3.13;;;;;;;;;;4982492;28;20223;-74
2021/04/22 11:35:26;;;;;;;10.53;2.73;;;;;;;;;;4986226;28;20184;-75
2021/04/22 11:38:11;;;;;;;7.43;2.67;;;;;;;;;;4977023;28;20185;-75
2021/04/22 11:40:59;;;;;;;7.50;2.60;;;;;;;;;;4978176;28;20245;-74
2021/04/22 11:43:29;;;;;;;7.67;2.80;;;;;;;;;;5001652;28;20743;-76
2021/04/22 11:45:58;;;;;;;13.20;2.83;;;;;;;;;;4981874;28;20192;-76
2021/04/22 11:48:24;;;;;;;8.60;2.70;;;;;;;;;;4984825;28;20234;-76
2021/04/22 11:50:54;;;;;;;8.20;2.40;;;;;;;;;;4984012;28;20576;-77
2021/04/22 11:53:33;;;;;;;6.73;2.70;;;;;;;;;;4978572;28;20216;-75
2021/04/22 11:56:00;;;;;;;12.60;3.20;;;;;;;;;;4985186;28;20275;-76
2021/04/22 11:58:26;;;;;;;15.57;3.60;;;;;;;;;;4984707;28;20643;-76
2021/04/22 12:00:55;;;;;;;8.00;2.93;;;;;;;;;;4988242;28;20223;-76
2021/04/22 12:03:30;;;;;;;17.23;3.47;;;;;;;;;;4986869;28;20208;-76
2021/04/22 12:05:58;;;;;;;10.97;2.97;;;;;;;;;;4976915;28;20661;-75
2021/04/22 12:08:32;;;;;;;6.53;2.40;;;;;;;;;;4985480;28;20274;-76
2021/04/22 12:11:02;;;;;;;7.67;2.60;;;;;;;;;;4987385;28;20223;-74
2021/04/22 12:13:28;;;;;;;7.23;2.47;;;;;;;;;;4983733;28;20282;-77
2021/04/22 12:16:10;;;;;;;9.27;2.70;;;;;;;;;;4982144;28;20184;-75
2021/04/22 12:18:44;;;;;;;14.27;2.77;;;;;;;;;;4985669;28;20238;-76
2021/04/22 12:21:11;;;;;;;7.17;2.70;;;;;;;;;;4983604;28;20211;-75
2021/04/22 12:23:42;;;;;;;8.07;2.83;;;;;;;;;;4988072;28;20200;-75
2021/04/22 12:26:26;;;;;;;8.37;2.43;;;;;;;;;;4983321;28;20238;-75
2021/04/22 12:29:16;;;;;;;9.27;2.87;;;;;;;;;;4986862;28;20682;-73
2021/04/22 12:32:02;;;;;;;8.97;2.70;;;;;;;;;;4984069;28;20711;-75
2021/04/22 12:34:35;;;;;;;8.47;2.53;;;;;;;;;;4985242;28;20226;-76
2021/04/22 12:37:15;;;;;;;7.03;2.40;;;;;;;;;;4976599;28;20271;-76
2021/04/22 12:39:42;;;;;;;10.53;2.87;;;;;;;;;;4986881;28;20555;-73
2021/04/22 12:42:15;;;;;;;8.53;2.70;;;;;;;;;;4986413;28;20220;-76
2021/04/22 12:44:52;;;;;;;9.73;3.00;;;;;;;;;;4987007;28;20199;-76
2021/04/22 12:47:17;;;;;;;9.40;2.30;;;;;;;;;;4985620;28;20204;-78
2021/04/22 12:49:54;;;;;;;6.07;2.50;;;;;;;;;;4982294;28;20180;-78
2021/04/22 12:52:23;;;;;;;9.43;2.90;;;;;;;;;;4990632;28;20203;-76
2021/04/22 12:54:58;;;;;;;8.03;2.60;;;;;;;;;;4991968;28;20188;-77
2021/04/22 12:57:24;;;;;;;6.07;2.70;;;;;;;;;;4980159;28;20627;-77
2021/04/22 12:59:52;;;;;;;10.53;2.83;;;;;;;;;;4984016;28;20191;-76
2021/04/22 13:02:41;;;;;;;8.17;2.70;;;;;;;;;;4987745;28;20207;-76
2021/04/22 13:05:13;;;;;;;10.23;2.87;;;;;;;;;;4982839;28;20239;-76
2021/04/22 13:07:51;;;;;;;8.13;2.40;;;;;;;;;;4981177;28;20222;-75
2021/04/22 13:10:29;;;;;;;11.27;2.83;;;;;;;;;;4961929;28;20560;-77
2021/04/22 13:12:54;;;;;;;9.70;3.30;;;;;;;;;;4994427;28;20209;-76
2021/04/22 13:15:21;;;;;;;8.73;2.50;;;;;;;;;;4986940;28;20184;-76
2021/04/22 13:17:46;;;;;;;8.57;2.67;;;;;;;;;;4984970;28;20242;-75
2021/04/22 13:20:19;;;;;;;8.17;2.57;;;;;;;;;;4986500;28;20188;-75
2021/04/22 13:22:52;;;;;;;12.00;2.97;;;;;;;;;;4990284;28;20215;-75
2021/04/22 13:25:19;;;;;;;7.73;2.93;;;;;;;;;;4980083;28;20192;-76
2021/04/22 13:27:44;;;;;;;10.33;2.53;;;;;;;;;;4982224;28;20246;-76
2021/04/22 13:30:13;;;;;;;7.40;2.30;;;;;;;;;;4986911;28;20191;-76
2021/04/22 13:32:39;;;;;;;8.83;2.70;;;;;;;;;;4985365;28;20203;-75
2021/04/22 13:35:09;;;;;;;8.40;2.80;;;;;;;;;;4982763;28;20917;-75
2021/04/22 13:37:39;;;;;;;5.97;2.77;;;;;;;;;;4978086;28;20189;-76
2021/04/22 13:40:13;;;;;;;10.47;2.90;;;;;;;;;;4986203;28;20185;-75
2021/04/22 13:42:42;;;;;;;9.23;3.17;;;;;;;;;;4985502;28;20710;-75
2021/04/22 13:45:09;;;;;;;8.40;2.60;;;;;;;;;;4988141;28;20179;-75
2021/04/22 13:47:48;;;;;;;6.30;2.30;;;;;;;;;;4985937;28;20343;-76
2021/04/22 13:50:19;;;;;;;7.30;2.70;;;;;;;;;;4984453;28;20191;-76
2021/04/22 13:52:44;;;;;;;7.43;2.60;;;;;;;;;;4983878;28;20294;-75
2021/04/22 13:55:11;;;;;;;7.80;2.80;;;;;;;;;;4985889;28;20716;-75
2021/04/22 13:57:47;;;;;;;9.47;2.83;;;;;;;;;;4986155;28;20273;-75
2021/04/22 14:00:17;;;;;;;9.33;3.23;;;;;;;;;;4996403;28;20192;-75
2021/04/22 14:02:47;;;;;;;6.80;2.70;;;;;;;;;;4986811;28;20215;-75
2021/04/22 14:05:17;;;;;;;9.63;2.93;;;;;;;;;;4981462;28;20185;-75
2021/04/22 14:07:59;;;;;;;6.83;2.43;;;;;;;;;;4983705;28;20191;-76
2021/04/22 14:11:03;;;;;;;10.13;2.50;;;;;;;;;;5002613;28;20669;-76
2021/04/22 14:13:47;;;;;;;10.73;2.60;;;;;;;;;;4989120;28;20203;-75
2021/04/22 14:16:22;;;;;;;5.50;2.73;;;;;;;;;;4980275;28;20254;-76
2021/04/22 14:19:31;;;;;;;5.73;2.80;;;;;;;;;;4992213;28;20850;-75
2021/04/22 14:22:00;;;;;;;8.73;2.43;;;;;;;;;;4983207;28;20235;-76
2021/04/22 14:24:31;;;;;;;6.80;2.27;;;;;;;;;;4996125;28;20266;-75
2021/04/22 14:27:11;;;;;;;9.20;2.80;;;;;;;;;;4988032;28;20183;-75
2021/04/22 14:30:09;;;;;;;10.73;2.77;;;;;;;;;;4988574;28;20184;-76
2021/04/22 14:32:36;;;;;;;10.07;2.70;;;;;;;;;;4989181;28;20208;-75
2021/04/22 14:35:01;;;;;;;9.07;2.60;;;;;;;;;;4990003;28;20604;-75
2021/04/22 14:37:27;;;;;;;7.00;2.57;;;;;;;;;;4979844;28;20279;-76
2021/04/22 14:39:52;;;;;;;7.87;2.80;;;;;;;;;;4987978;28;20262;-75
2021/04/22 14:45:32;;;;;;;6.77;2.50;;;;;;;;;;4982389;28;20228;-75
2021/04/22 14:48:07;;;;;;;9.47;2.67;;;;;;;;;;4979864;28;20196;-74